Time;durP1;ratioP1;P1;durP2;ratioP2;P2;SDS_P1;SDS_P2;PMS_P1;PMS_P2;Temp;Humidity;BMP_temperature;BMP_pressure;BME280_temperature;BME280_humidity;BME280_pressure;Samples;Min_cycle;Max_cycle;Signal;HPM_P1;HPM_P2
2022/11/04 05:00:53;;;;;;;0.60;0.60;;;;;;;;;;5851746;23;20481;-85
2022/11/04 05:03:19;;;;;;;0.95;0.70;;;;;;;;;;5037798;28;20834;-85
2022/11/04 05:05:45;;;;;;;0.85;0.60;;;;;;;;;;5031918;28;20486;-85
2022/11/04 05:08:11;;;;;;;1.00;0.60;;;;;;;;;;5030902;28;20939;-85
2022/11/04 05:10:37;;;;;;;1.67;0.80;;;;;;;;;;5030785;28;20415;-85
2022/11/04 05:15:47;;;;;;;0.97;0.60;;;;;;;;;;5032456;28;20432;-86
2022/11/04 05:18:13;;;;;;;1.02;0.65;;;;;;;;;;5031496;28;20379;-85
2022/11/04 05:20:39;;;;;;;1.38;0.50;;;;;;;;;;5033575;28;20391;-85
2022/11/04 05:23:06;;;;;;;0.50;0.50;;;;;;;;;;5032057;28;20384;-85
2022/11/04 05:25:32;;;;;;;0.80;0.70;;;;;;;;;;5033345;28;20396;-85
2022/11/04 05:28:01;;;;;;;1.70;0.70;;;;;;;;;;5034188;28;20394;-85
2022/11/04 05:30:27;;;;;;;0.70;0.70;;;;;;;;;;5034161;28;20402;-85
2022/11/04 05:32:53;;;;;;;1.30;0.90;;;;;;;;;;5033904;28;20375;-84
2022/11/04 05:35:19;;;;;;;2.30;1.90;;;;;;;;;;5033908;28;20383;-84
2022/11/04 05:37:45;;;;;;;0.90;0.70;;;;;;;;;;5034030;28;20446;-84
2022/11/04 05:40:11;;;;;;;1.10;0.90;;;;;;;;;;5033897;28;21180;-84
2022/11/04 05:42:37;;;;;;;1.20;1.10;;;;;;;;;;5032707;28;20414;-84
2022/11/04 05:45:04;;;;;;;1.10;0.90;;;;;;;;;;5033740;28;20860;-84
2022/11/04 05:47:30;;;;;;;1.95;1.10;;;;;;;;;;5033698;28;20380;-84
2022/11/04 05:49:56;;;;;;;1.80;0.95;;;;;;;;;;5032872;28;20413;-84
2022/11/04 05:52:22;;;;;;;0.70;0.70;;;;;;;;;;5032685;28;20875;-84
2022/11/04 05:54:48;;;;;;;0.95;0.90;;;;;;;;;;5033515;28;20379;-84
2022/11/04 05:57:14;;;;;;;1.33;1.23;;;;;;;;;;5033713;28;20386;-84
2022/11/04 05:59:40;;;;;;;1.83;1.50;;;;;;;;;;5033615;28;20395;-84
2022/11/04 06:02:06;;;;;;;1.50;1.20;;;;;;;;;;5032250;28;20387;-84
2022/11/04 06:04:32;;;;;;;3.13;2.35;;;;;;;;;;5033569;28;20393;-84
2022/11/04 06:06:58;;;;;;;2.57;2.23;;;;;;;;;;5033228;28;20745;-84
2022/11/04 06:09:37;;;;;;;3.78;1.45;;;;;;;;;;5031987;28;20776;-84
2022/11/04 06:12:14;;;;;;;1.80;1.30;;;;;;;;;;5031943;28;20411;-85
2022/11/04 06:14:40;;;;;;;1.73;1.52;;;;;;;;;;5032558;28;20391;-84
2022/11/04 06:17:07;;;;;;;2.15;1.88;;;;;;;;;;5033090;28;20732;-84
2022/11/04 06:19:33;;;;;;;2.83;2.63;;;;;;;;;;5036107;28;20375;-85
2022/11/04 06:21:59;;;;;;;3.67;3.03;;;;;;;;;;5032786;28;20532;-85
2022/11/04 06:24:25;;;;;;;2.63;2.40;;;;;;;;;;5043468;28;20424;-86
2022/11/04 06:26:51;;;;;;;2.55;2.20;;;;;;;;;;5038168;28;20768;-85
2022/11/04 06:29:17;;;;;;;2.00;1.80;;;;;;;;;;5033074;28;20375;-85
2022/11/04 06:31:43;;;;;;;2.97;2.10;;;;;;;;;;5032624;28;20434;-85
2022/11/04 06:34:09;;;;;;;1.67;1.50;;;;;;;;;;5033244;28;20902;-85
2022/11/04 06:36:35;;;;;;;2.30;1.40;;;;;;;;;;5032884;28;20402;-84
2022/11/04 06:39:01;;;;;;;2.10;1.60;;;;;;;;;;5032810;28;20852;-86
2022/11/04 06:41:27;;;;;;;2.40;1.80;;;;;;;;;;5032809;28;20394;-85
2022/11/04 06:43:53;;;;;;;2.28;1.70;;;;;;;;;;5033354;28;20466;-85
2022/11/04 06:46:28;;;;;;;2.13;1.52;;;;;;;;;;5032725;28;20720;-85
2022/11/04 06:48:55;;;;;;;2.50;1.70;;;;;;;;;;5032616;28;20376;-85
2022/11/04 06:51:21;;;;;;;2.40;1.83;;;;;;;;;;5031938;28;20745;-86
2022/11/04 06:53:47;;;;;;;1.90;1.67;;;;;;;;;;5032542;28;20379;-86
2022/11/04 06:56:14;;;;;;;3.13;1.77;;;;;;;;;;5032643;28;20379;-86
2022/11/04 06:58:40;;;;;;;2.35;1.70;;;;;;;;;;5032652;28;20871;-87
2022/11/04 07:01:06;;;;;;;1.80;1.70;;;;;;;;;;5032324;28;20863;-87
2022/11/04 07:03:32;;;;;;;3.58;3.28;;;;;;;;;;5032543;28;20587;-87
2022/11/04 07:05:58;;;;;;;4.50;3.75;;;;;;;;;;5032626;28;20386;-86
2022/11/04 07:08:24;;;;;;;3.47;3.17;;;;;;;;;;5032489;28;20383;-86
2022/11/04 07:10:50;;;;;;;3.00;2.65;;;;;;;;;;5032083;28;20399;-86
2022/11/04 07:13:16;;;;;;;2.50;2.30;;;;;;;;;;5032451;28;20375;-87
2022/11/04 07:15:42;;;;;;;3.10;2.90;;;;;;;;;;5032449;28;20410;-86
2022/11/04 07:18:08;;;;;;;4.00;3.60;;;;;;;;;;5032592;28;20728;-87
2022/11/04 07:20:36;;;;;;;6.80;6.10;;;;;;;;;;5032129;28;20398;-87
2022/11/04 07:23:02;;;;;;;5.30;4.80;;;;;;;;;;5027079;28;20403;-86
2022/11/04 07:25:28;;;;;;;4.95;4.50;;;;;;;;;;5021781;28;20400;-87
2022/11/04 07:27:54;;;;;;;7.82;5.47;;;;;;;;;;5029268;28;20379;-89
2022/11/04 07:30:20;;;;;;;5.57;5.07;;;;;;;;;;5031229;28;20403;-88
2022/11/04 07:32:46;;;;;;;1.70;1.60;;;;;;;;;;5028952;28;20407;-86
2022/11/04 07:35:12;;;;;;;2.70;1.85;;;;;;;;;;5031199;28;20398;-88
2022/11/04 07:37:38;;;;;;;1.63;1.40;;;;;;;;;;5036288;28;20427;-87
2022/11/04 07:40:05;;;;;;;1.98;1.40;;;;;;;;;;5036346;28;20429;-87
2022/11/04 07:42:31;;;;;;;1.20;1.10;;;;;;;;;;5031096;28;20449;-87
2022/11/04 07:44:57;;;;;;;1.23;1.00;;;;;;;;;;5030429;28;20383;-87
2022/11/04 07:47:23;;;;;;;1.15;1.10;;;;;;;;;;5024199;28;20532;-87
2022/11/04 07:49:49;;;;;;;1.30;1.20;;;;;;;;;;5025737;28;20391;-87
2022/11/04 07:52:15;;;;;;;4.70;4.30;;;;;;;;;;5030446;28;20828;-88
2022/11/04 07:54:41;;;;;;;2.58;2.38;;;;;;;;;;5029548;28;20394;-89
2022/11/04 07:57:07;;;;;;;1.08;1.00;;;;;;;;;;5030014;28;20383;-87
2022/11/04 07:59:33;;;;;;;0.98;0.90;;;;;;;;;;5022990;28;20393;-86
2022/11/04 08:01:59;;;;;;;0.90;0.80;;;;;;;;;;5029402;28;20395;-89
2022/11/04 08:04:25;;;;;;;1.45;1.30;;;;;;;;;;5031957;28;20749;-90
2022/11/04 08:06:51;;;;;;;3.95;1.50;;;;;;;;;;5033765;28;20383;-90
2022/11/04 08:09:17;;;;;;;1.85;1.60;;;;;;;;;;5039179;28;20432;-89
2022/11/04 08:11:43;;;;;;;2.15;1.70;;;;;;;;;;5034666;28;20863;-91
2022/11/04 08:14:09;;;;;;;2.00;1.80;;;;;;;;;;5046676;28;20499;-91
2022/11/04 08:16:35;;;;;;;1.70;1.60;;;;;;;;;;5034863;28;20383;-89
2022/11/04 08:19:01;;;;;;;2.40;1.80;;;;;;;;;;5034754;28;20375;-89
2022/11/04 08:21:31;;;;;;;2.05;1.77;;;;;;;;;;5035323;28;20383;-90
2022/11/04 08:23:57;;;;;;;1.85;1.25;;;;;;;;;;5035382;28;20441;-88
2022/11/04 08:26:23;;;;;;;1.60;1.50;;;;;;;;;;5049830;28;20379;-90
2022/11/04 08:28:50;;;;;;;2.10;1.58;;;;;;;;;;5035741;28;20890;-91
2022/11/04 08:31:18;;;;;;;1.88;1.30;;;;;;;;;;5034121;28;20415;-90
2022/11/04 08:33:44;;;;;;;1.60;1.50;;;;;;;;;;5053812;28;20381;-90
2022/11/04 08:36:12;;;;;;;0.90;0.90;;;;;;;;;;5040918;28;20387;-91
2022/11/04 08:38:38;;;;;;;1.00;0.90;;;;;;;;;;5035647;28;20401;-89
2022/11/04 08:41:05;;;;;;;1.45;1.35;;;;;;;;;;5035361;28;20383;-90
2022/11/04 08:43:33;;;;;;;1.67;1.57;;;;;;;;;;5035463;28;20492;-89
2022/11/04 08:45:59;;;;;;;1.58;1.48;;;;;;;;;;5037220;28;20402;-89
2022/11/04 08:48:25;;;;;;;1.40;1.30;;;;;;;;;;5042010;28;20923;-90
2022/11/04 08:50:52;;;;;;;1.80;1.70;;;;;;;;;;5035112;28;20407;-89
2022/11/04 08:53:18;;;;;;;2.00;1.30;;;;;;;;;;5035148;28;20407;-90
2022/11/04 08:55:44;;;;;;;1.40;1.30;;;;;;;;;;5034977;28;20848;-89
2022/11/04 08:58:10;;;;;;;2.28;1.50;;;;;;;;;;5035030;28;20473;-90
2022/11/04 09:00:36;;;;;;;2.70;1.35;;;;;;;;;;5035106;28;20371;-90
2022/11/04 09:03:03;;;;;;;1.83;1.20;;;;;;;;;;5035058;28;20395;-90
2022/11/04 09:05:29;;;;;;;1.27;1.17;;;;;;;;;;5034812;28;20379;-90
2022/11/04 09:07:56;;;;;;;1.00;0.88;;;;;;;;;;5054897;28;20424;-90
2022/11/04 09:10:22;;;;;;;2.10;1.45;;;;;;;;;;5055190;28;20496;-90
2022/11/04 09:12:48;;;;;;;8.70;4.00;;;;;;;;;;5055069;28;20531;-89
2022/11/04 09:15:14;;;;;;;10.00;6.60;;;;;;;;;;5054877;28;20738;-90
2022/11/04 09:17:40;;;;;;;7.90;2.97;;;;;;;;;;5054582;28;20381;-90
2022/11/04 09:20:06;;;;;;;2.40;1.10;;;;;;;;;;5054447;28;20388;-90
2022/11/04 09:22:32;;;;;;;2.13;1.23;;;;;;;;;;5036732;28;20474;-90
2022/11/04 09:24:58;;;;;;;6.40;4.20;;;;;;;;;;5034878;28;20383;-90
2022/11/04 09:27:24;;;;;;;1.85;1.60;;;;;;;;;;5034708;28;20446;-90
2022/11/04 09:29:50;;;;;;;1.55;0.93;;;;;;;;;;5034344;28;20872;-91
2022/11/04 09:32:16;;;;;;;8.37;7.67;;;;;;;;;;5034158;28;20382;-91
2022/11/04 09:34:42;;;;;;;6.90;6.03;;;;;;;;;;5034456;28;20475;-92
2022/11/04 09:37:08;;;;;;;1.77;0.80;;;;;;;;;;5034880;28;20379;-92
2022/11/04 09:39:34;;;;;;;13.83;11.67;;;;;;;;;;5034250;28;20371;-91
2022/11/04 09:42:10;;;;;;;12.07;10.82;;;;;;;;;;5033993;28;20898;-91
2022/11/04 09:44:41;;;;;;;2.60;1.50;;;;;;;;;;5034284;28;20470;-89
2022/11/04 09:47:08;;;;;;;3.00;1.27;;;;;;;;;;5033787;28;20411;-90
2022/11/04 09:49:36;;;;;;;1.48;0.90;;;;;;;;;;5024774;28;20449;-90
2022/11/04 09:52:06;;;;;;;1.33;1.10;;;;;;;;;;5034169;28;20537;-90
2022/11/04 09:54:38;;;;;;;1.45;1.00;;;;;;;;;;5033746;28;20383;-89
2022/11/04 09:57:04;;;;;;;1.60;1.40;;;;;;;;;;5033743;28;20425;-88
2022/11/04 09:59:32;;;;;;;4.93;1.60;;;;;;;;;;5033944;28;20472;-89
2022/11/04 10:02:07;;;;;;;1.77;1.27;;;;;;;;;;5033432;28;20398;-90
2022/11/04 10:04:39;;;;;;;1.58;1.38;;;;;;;;;;5032452;28;20879;-88
2022/11/04 10:07:14;;;;;;;2.83;1.13;;;;;;;;;;5033495;28;20387;-89
2022/11/04 10:10:01;;;;;;;2.90;1.40;;;;;;;;;;5032478;28;20486;-92
2022/11/04 10:12:45;;;;;;;2.47;1.25;;;;;;;;;;5019927;28;20383;-91
2022/11/04 10:15:17;;;;;;;2.35;1.42;;;;;;;;;;5033895;28;20375;-91
2022/11/04 10:17:43;;;;;;;2.00;1.30;;;;;;;;;;5036322;28;20390;-90
2022/11/04 10:20:27;;;;;;;3.17;1.50;;;;;;;;;;5033262;28;20384;-90
2022/11/04 10:23:12;;;;;;;1.52;1.17;;;;;;;;;;5030742;28;20470;-90
2022/11/04 10:25:41;;;;;;;1.67;1.05;;;;;;;;;;5030565;28;20852;-89
2022/11/04 10:28:10;;;;;;;2.50;1.08;;;;;;;;;;5030930;28;20396;-92
2022/11/04 10:30:36;;;;;;;1.20;0.80;;;;;;;;;;5032796;28;20809;-87
2022/11/04 10:33:10;;;;;;;1.98;1.13;;;;;;;;;;5028952;28;20482;-90
2022/11/04 10:35:58;;;;;;;2.05;1.02;;;;;;;;;;5027081;28;21105;-91
2022/11/04 10:38:24;;;;;;;2.20;1.10;;;;;;;;;;5029993;28;20454;-90
2022/11/04 10:40:54;;;;;;;1.75;1.00;;;;;;;;;;5032091;28;20484;-89
2022/11/04 10:43:40;;;;;;;1.23;1.10;;;;;;;;;;5010227;28;21066;-89
2022/11/04 10:46:09;;;;;;;2.47;1.10;;;;;;;;;;5010477;28;20446;-89
2022/11/04 10:48:43;;;;;;;1.67;1.13;;;;;;;;;;5016502;28;20395;-90
2022/11/04 10:51:09;;;;;;;1.77;0.98;;;;;;;;;;5017552;28;20417;-92
2022/11/04 10:53:36;;;;;;;2.35;1.48;;;;;;;;;;5017577;28;20886;-90
2022/11/04 10:56:06;;;;;;;3.20;1.70;;;;;;;;;;5016267;28;20418;-87
2022/11/04 10:58:34;;;;;;;2.40;1.20;;;;;;;;;;5029272;28;20407;-92
2022/11/04 11:01:20;;;;;;;2.73;1.10;;;;;;;;;;5013893;28;20737;-89
2022/11/04 11:03:46;;;;;;;2.60;1.10;;;;;;;;;;5018598;28;20398;-90
2022/11/04 11:06:20;;;;;;;1.67;0.80;;;;;;;;;;5015039;28;20810;-90
2022/11/04 11:08:46;;;;;;;1.67;0.90;;;;;;;;;;5029844;28;20423;-90
2022/11/04 11:11:14;;;;;;;1.35;0.90;;;;;;;;;;5032978;28;20402;-91
2022/11/04 11:13:42;;;;;;;1.50;0.80;;;;;;;;;;5032818;28;20394;-91
2022/11/04 11:16:08;;;;;;;2.33;0.88;;;;;;;;;;5052478;28;20401;-89
2022/11/04 11:18:37;;;;;;;2.28;1.00;;;;;;;;;;5031738;28;20383;-90
2022/11/04 11:21:06;;;;;;;2.40;1.05;;;;;;;;;;5022122;28;20436;-92
2022/11/04 11:23:34;;;;;;;1.47;0.90;;;;;;;;;;5053223;28;20735;-87
2022/11/04 11:26:01;;;;;;;2.40;0.85;;;;;;;;;;5052872;28;20381;-87
2022/11/04 11:28:27;;;;;;;2.33;1.10;;;;;;;;;;5052967;28;20377;-91
2022/11/04 11:31:06;;;;;;;3.17;1.30;;;;;;;;;;5052419;28;20409;-89
2022/11/04 11:33:33;;;;;;;3.00;1.30;;;;;;;;;;5052784;28;20366;-90
2022/11/04 11:36:02;;;;;;;4.05;0.93;;;;;;;;;;5054861;28;20396;-94
2022/11/04 11:38:30;;;;;;;2.00;0.80;;;;;;;;;;5019674;28;20747;-89
2022/11/04 11:41:07;;;;;;;2.75;1.10;;;;;;;;;;5027069;28;20445;-90
2022/11/04 11:43:34;;;;;;;2.28;1.00;;;;;;;;;;5056573;28;20385;-89
2022/11/04 11:46:00;;;;;;;2.13;1.00;;;;;;;;;;5058962;28;20381;-90
2022/11/04 11:48:28;;;;;;;1.50;1.00;;;;;;;;;;5023293;28;20389;-90
2022/11/04 11:50:57;;;;;;;2.03;1.20;;;;;;;;;;5033893;28;20406;-88
2022/11/04 11:53:24;;;;;;;2.50;1.00;;;;;;;;;;5035446;28;20397;-89
2022/11/04 11:56:00;;;;;;;3.08;1.25;;;;;;;;;;5036998;28;20739;-88
2022/11/04 11:58:38;;;;;;;2.75;1.30;;;;;;;;;;5037795;28;20372;-91
2022/11/04 12:01:12;;;;;;;2.80;1.00;;;;;;;;;;5033866;28;20387;-89
2022/11/04 12:03:39;;;;;;;1.80;0.90;;;;;;;;;;5050321;28;20425;-89
2022/11/04 12:06:18;;;;;;;3.35;2.70;;;;;;;;;;5053147;28;20447;-90
2022/11/04 12:08:53;;;;;;;6.00;4.38;;;;;;;;;;5052688;28;20389;-91
2022/11/04 12:11:27;;;;;;;3.53;1.63;;;;;;;;;;5058272;28;20433;-90
2022/11/04 12:13:57;;;;;;;2.38;1.45;;;;;;;;;;5063975;28;20441;-91
2022/11/04 12:16:33;;;;;;;2.38;0.90;;;;;;;;;;5046236;28;20394;-90
2022/11/04 12:19:19;;;;;;;2.00;0.90;;;;;;;;;;5046480;28;20398;-90
2022/11/04 12:21:48;;;;;;;2.75;1.17;;;;;;;;;;5027863;28;20375;-90
2022/11/04 12:24:20;;;;;;;2.50;1.10;;;;;;;;;;5030197;28;20379;-92
2022/11/04 12:27:06;;;;;;;2.58;1.02;;;;;;;;;;5030098;28;20387;-89
2022/11/04 12:29:32;;;;;;;7.07;4.97;;;;;;;;;;5035488;28;20453;-89
2022/11/04 12:32:05;;;;;;;3.07;0.90;;;;;;;;;;5028926;28;20561;-88
2022/11/04 12:34:34;;;;;;;2.42;0.77;;;;;;;;;;5035365;28;20423;-93
2022/11/04 12:37:07;;;;;;;1.63;0.70;;;;;;;;;;5036253;28;20407;-89
2022/11/04 12:39:50;;;;;;;1.92;0.68;;;;;;;;;;5038961;28;20526;-91
2022/11/04 12:42:16;;;;;;;4.10;1.42;;;;;;;;;;5029725;28;20391;-90
2022/11/04 12:44:47;;;;;;;2.53;1.40;;;;;;;;;;5018797;28;21095;-90
2022/11/04 12:47:13;;;;;;;2.25;0.90;;;;;;;;;;5053455;28;20395;-90
2022/11/04 12:49:56;;;;;;;2.42;0.82;;;;;;;;;;5028380;28;20884;-91
2022/11/04 12:52:44;;;;;;;3.28;0.90;;;;;;;;;;5031343;28;20417;-90
2022/11/04 12:55:28;;;;;;;3.38;1.50;;;;;;;;;;5031131;28;20383;-90
2022/11/04 12:58:03;;;;;;;2.45;1.25;;;;;;;;;;5016160;28;20381;-90
2022/11/04 13:00:29;;;;;;;3.47;1.25;;;;;;;;;;5024888;28;20388;-91
2022/11/04 13:03:14;;;;;;;3.58;1.92;;;;;;;;;;5035977;28;20387;-91
2022/11/04 13:05:46;;;;;;;3.97;1.17;;;;;;;;;;5037238;28;20395;-91
2022/11/04 13:08:22;;;;;;;2.17;1.00;;;;;;;;;;5018550;28;20389;-91
2022/11/04 13:11:00;;;;;;;3.45;1.65;;;;;;;;;;5037708;28;20434;-89
2022/11/04 13:13:32;;;;;;;3.65;1.95;;;;;;;;;;5018663;28;20392;-90
2022/11/04 13:16:01;;;;;;;3.28;2.03;;;;;;;;;;5023081;28;20396;-90
2022/11/04 13:18:30;;;;;;;3.83;2.42;;;;;;;;;;5019342;28;20420;-91
2022/11/04 13:21:04;;;;;;;2.25;1.40;;;;;;;;;;5019899;28;20383;-90
2022/11/04 13:23:49;;;;;;;2.30;1.20;;;;;;;;;;5024049;28;20442;-92
2022/11/04 13:26:15;;;;;;;2.95;1.38;;;;;;;;;;5019825;28;20387;-90
2022/11/04 13:28:42;;;;;;;3.28;1.77;;;;;;;;;;5028363;28;20395;-89
2022/11/04 13:31:19;;;;;;;3.63;2.53;;;;;;;;;;5045083;28;20411;-89
2022/11/04 13:33:51;;;;;;;4.55;3.08;;;;;;;;;;5035155;28;20459;-90
2022/11/04 13:36:33;;;;;;;2.45;1.33;;;;;;;;;;5035147;28;20384;-91
2022/11/04 13:39:01;;;;;;;5.15;1.60;;;;;;;;;;5028148;28;20407;-91
2022/11/04 13:41:27;;;;;;;2.80;2.00;;;;;;;;;;5031855;28;20408;-91
2022/11/04 13:43:56;;;;;;;1.90;1.20;;;;;;;;;;5031133;28;20886;-91
2022/11/04 13:46:28;;;;;;;2.15;1.17;;;;;;;;;;5040340;28;20467;-91
2022/11/04 13:48:54;;;;;;;2.25;1.45;;;;;;;;;;5037455;28;20871;-90
2022/11/04 13:51:20;;;;;;;2.33;1.33;;;;;;;;;;5035073;28;20406;-90
2022/11/04 13:53:55;;;;;;;2.28;1.00;;;;;;;;;;5036241;28;20415;-90
2022/11/04 13:56:38;;;;;;;3.78;1.27;;;;;;;;;;5032329;28;20383;-89
2022/11/04 13:59:16;;;;;;;3.10;1.40;;;;;;;;;;5033984;28;20380;-90
2022/11/04 14:01:42;;;;;;;2.97;1.30;;;;;;;;;;5028922;28;20764;-89
2022/11/04 14:04:24;;;;;;;2.03;1.08;;;;;;;;;;5035563;28;20904;-89
2022/11/04 14:06:54;;;;;;;1.67;1.30;;;;;;;;;;5054415;28;20382;-88
2022/11/04 14:09:31;;;;;;;2.47;1.10;;;;;;;;;;5032876;28;20467;-90
2022/11/04 14:12:12;;;;;;;2.60;1.05;;;;;;;;;;5037589;28;20409;-92
2022/11/04 14:14:39;;;;;;;2.63;1.20;;;;;;;;;;5052881;28;20428;-91
2022/11/04 14:17:24;;;;;;;3.85;1.10;;;;;;;;;;5036471;28;20466;-89
2022/11/04 14:19:56;;;;;;;3.13;1.15;;;;;;;;;;5005890;28;20426;-92
2022/11/04 14:22:43;;;;;;;1.80;1.10;;;;;;;;;;5036387;28;20383;-88
2022/11/04 14:25:18;;;;;;;3.13;1.40;;;;;;;;;;5023183;28;20382;-90
2022/11/04 14:27:45;;;;;;;3.72;1.98;;;;;;;;;;5037359;28;20409;-90
2022/11/04 14:30:29;;;;;;;2.53;2.00;;;;;;;;;;5035257;28;20461;-88
2022/11/04 14:32:58;;;;;;;3.35;2.10;;;;;;;;;;5032531;28;20410;-89
2022/11/04 14:35:24;;;;;;;3.50;1.83;;;;;;;;;;5036332;28;20383;-91
2022/11/04 14:37:52;;;;;;;4.13;2.37;;;;;;;;;;5028982;28;20387;-91
2022/11/04 14:40:45;;;;;;;3.55;1.85;;;;;;;;;;5023979;28;20410;-91
2022/11/04 14:43:32;;;;;;;4.53;2.00;;;;;;;;;;5033848;28;20513;-91
2022/11/04 14:45:59;;;;;;;3.08;1.20;;;;;;;;;;5039529;28;20757;-90
2022/11/04 14:48:26;;;;;;;2.92;1.30;;;;;;;;;;5060233;28;20393;-90
2022/11/04 14:50:53;;;;;;;2.55;1.33;;;;;;;;;;5051531;28;20409;-90
2022/11/04 14:53:37;;;;;;;4.77;1.23;;;;;;;;;;5032036;28;20384;-89
2022/11/04 14:56:13;;;;;;;2.45;1.38;;;;;;;;;;5040111;28;20388;-91
2022/11/04 14:58:51;;;;;;;1.90;1.17;;;;;;;;;;5036262;28;20383;-91
2022/11/04 15:01:17;;;;;;;3.42;1.70;;;;;;;;;;5038620;28;20475;-92
2022/11/04 15:03:46;;;;;;;2.53;1.42;;;;;;;;;;5056133;28;20423;-90
2022/11/04 15:06:12;;;;;;;2.20;1.02;;;;;;;;;;5055676;28;20384;-91
2022/11/04 15:08:41;;;;;;;2.80;1.57;;;;;;;;;;5056023;28;20385;-90
2022/11/04 15:11:10;;;;;;;4.15;1.30;;;;;;;;;;5038533;28;20777;-90
2022/11/04 15:13:37;;;;;;;3.53;1.00;;;;;;;;;;5056153;28;20865;-90
2022/11/04 15:16:07;;;;;;;2.70;1.20;;;;;;;;;;5054571;28;20381;-90
2022/11/04 15:18:33;;;;;;;2.20;1.20;;;;;;;;;;5056025;28;20389;-90
2022/11/04 15:21:02;;;;;;;3.60;1.40;;;;;;;;;;5024546;28;20383;-91
2022/11/04 15:23:30;;;;;;;1.83;0.97;;;;;;;;;;5034796;28;20504;-91
2022/11/04 15:25:57;;;;;;;1.83;1.02;;;;;;;;;;5034597;28;20394;-90
2022/11/04 15:28:27;;;;;;;1.67;0.90;;;;;;;;;;5035720;28;20392;-90
2022/11/04 15:31:17;;;;;;;2.88;1.10;;;;;;;;;;5036138;28;20414;-92
2022/11/04 15:33:55;;;;;;;1.88;1.35;;;;;;;;;;5025496;28;20382;-91
2022/11/04 15:36:23;;;;;;;2.50;1.40;;;;;;;;;;5040356;28;20540;-91
2022/11/04 15:38:59;;;;;;;3.42;2.15;;;;;;;;;;5045075;28;20405;-90
2022/11/04 15:44:19;;;;;;;4.35;1.90;;;;;;;;;;5037191;28;20382;-90
2022/11/04 15:46:52;;;;;;;5.35;2.78;;;;;;;;;;5022359;28;20419;-90
2022/11/04 15:49:25;;;;;;;10.80;7.70;;;;;;;;;;5033015;28;20860;-90
2022/11/04 15:51:53;;;;;;;11.73;7.65;;;;;;;;;;5047358;28;20413;-91
2022/11/04 15:54:25;;;;;;;11.23;8.95;;;;;;;;;;5024666;28;20386;-90
2022/11/04 15:56:54;;;;;;;5.40;3.70;;;;;;;;;;5035513;28;20391;-90
2022/11/04 15:59:25;;;;;;;5.68;4.00;;;;;;;;;;5030430;28;20379;-90
2022/11/04 16:01:51;;;;;;;6.72;4.93;;;;;;;;;;5045209;28;20418;-90
2022/11/04 16:04:20;;;;;;;4.85;3.75;;;;;;;;;;5048933;28;20383;-91
2022/11/04 16:06:48;;;;;;;5.85;3.30;;;;;;;;;;5049135;28;20410;-89
2022/11/04 16:09:17;;;;;;;5.72;3.33;;;;;;;;;;5053170;28;20414;-91
2022/11/04 16:12:02;;;;;;;3.90;2.70;;;;;;;;;;5051891;28;20411;-90
2022/11/04 16:14:29;;;;;;;4.13;2.78;;;;;;;;;;5049958;28;20469;-90
2022/11/04 16:16:55;;;;;;;5.63;2.80;;;;;;;;;;5046996;28;20499;-91
2022/11/04 16:19:23;;;;;;;4.95;3.15;;;;;;;;;;5034427;28;20887;-91
2022/11/04 16:21:57;;;;;;;5.25;2.40;;;;;;;;;;5033862;28;20474;-90
2022/11/04 16:24:24;;;;;;;6.78;2.40;;;;;;;;;;5059436;28;20464;-91
2022/11/04 16:26:54;;;;;;;4.18;2.40;;;;;;;;;;5057876;28;20385;-89
2022/11/04 16:29:25;;;;;;;3.47;2.28;;;;;;;;;;5038988;28;20393;-90
2022/11/04 16:32:07;;;;;;;3.87;2.80;;;;;;;;;;5056787;28;20408;-89
2022/11/04 16:34:34;;;;;;;6.60;4.80;;;;;;;;;;5056380;28;20377;-90
2022/11/04 16:37:00;;;;;;;7.15;5.40;;;;;;;;;;5056657;28;20392;-91
2022/11/04 16:39:26;;;;;;;7.15;5.75;;;;;;;;;;5056634;28;20388;-91
2022/11/04 16:41:52;;;;;;;7.00;6.30;;;;;;;;;;5036985;28;20384;-91
2022/11/04 16:44:19;;;;;;;6.80;6.20;;;;;;;;;;5037153;28;20426;-90
2022/11/04 16:46:45;;;;;;;8.00;7.13;;;;;;;;;;5039476;28;20790;-91
2022/11/04 16:49:15;;;;;;;7.80;7.00;;;;;;;;;;5035968;28;20391;-92
2022/11/04 16:51:42;;;;;;;7.40;6.57;;;;;;;;;;5035623;28;20411;-91
2022/11/04 16:54:08;;;;;;;7.63;6.53;;;;;;;;;;5036093;28;20479;-91
2022/11/04 16:56:34;;;;;;;11.02;6.25;;;;;;;;;;5035202;28;20379;-90
2022/11/04 16:59:00;;;;;;;4.60;3.53;;;;;;;;;;5034828;28;20379;-89
2022/11/04 17:01:26;;;;;;;4.13;2.88;;;;;;;;;;5029826;28;20424;-89
2022/11/04 17:03:52;;;;;;;3.47;2.60;;;;;;;;;;5023600;28;20394;-90
2022/11/04 17:06:19;;;;;;;3.65;2.40;;;;;;;;;;5024284;28;20400;-90
2022/11/04 17:08:45;;;;;;;3.83;2.80;;;;;;;;;;5031912;28;20386;-90
2022/11/04 17:11:11;;;;;;;6.25;2.80;;;;;;;;;;5028679;28;20463;-90
2022/11/04 17:13:37;;;;;;;3.80;2.80;;;;;;;;;;5024934;28;20375;-90
2022/11/04 17:16:04;;;;;;;4.05;3.40;;;;;;;;;;5034401;28;20532;-89
2022/11/04 17:18:31;;;;;;;5.22;4.10;;;;;;;;;;5036845;28;20386;-89
2022/11/04 17:20:58;;;;;;;7.25;5.45;;;;;;;;;;5015936;28;20420;-90
2022/11/04 17:23:24;;;;;;;5.40;4.40;;;;;;;;;;5033280;28;20467;-90
2022/11/04 17:25:51;;;;;;;6.55;4.95;;;;;;;;;;5035005;28;20485;-89
2022/11/04 17:28:17;;;;;;;5.55;4.13;;;;;;;;;;5034914;28;20966;-89
2022/11/04 17:30:44;;;;;;;4.47;4.07;;;;;;;;;;5034748;28;20407;-89
2022/11/04 17:33:17;;;;;;;5.90;4.50;;;;;;;;;;5034661;28;20391;-89
2022/11/04 17:35:44;;;;;;;5.80;4.90;;;;;;;;;;5054628;28;20377;-88
2022/11/04 17:38:11;;;;;;;4.93;4.40;;;;;;;;;;5054257;28;20377;-89
2022/11/04 17:43:58;;;;;;;5.30;4.38;;;;;;;;;;5055004;28;20385;-90
2022/11/04 17:48:53;;;;;;;4.00;2.23;;;;;;;;;;5022140;28;20752;-90
2022/11/04 17:51:19;;;;;;;2.03;1.83;;;;;;;;;;5028511;28;20413;-91
2022/11/04 17:53:46;;;;;;;2.67;2.40;;;;;;;;;;5029007;28;20483;-89
2022/11/04 17:56:16;;;;;;;2.60;2.40;;;;;;;;;;5028046;28;20407;-89
2022/11/04 17:58:42;;;;;;;2.28;2.08;;;;;;;;;;5036781;28;20425;-88
2022/11/04 18:01:08;;;;;;;2.92;2.40;;;;;;;;;;5035162;28;20391;-87
2022/11/04 18:03:35;;;;;;;3.03;2.10;;;;;;;;;;5030513;28;20398;-88
2022/11/04 18:06:01;;;;;;;2.17;1.95;;;;;;;;;;5036121;28;20383;-89
2022/11/04 18:08:27;;;;;;;2.05;1.75;;;;;;;;;;5034900;28;20470;-89
2022/11/04 18:11:00;;;;;;;9.88;8.98;;;;;;;;;;5029125;28;20892;-90
2022/11/04 18:13:26;;;;;;;6.32;5.72;;;;;;;;;;5033724;28;20379;-89
2022/11/04 18:15:52;;;;;;;4.05;3.75;;;;;;;;;;5034017;28;20413;-88
2022/11/04 18:18:18;;;;;;;3.03;2.17;;;;;;;;;;5033389;28;20375;-89
2022/11/04 18:20:44;;;;;;;2.67;1.80;;;;;;;;;;5029169;28;20870;-90
2022/11/04 18:23:11;;;;;;;1.90;1.67;;;;;;;;;;5013993;28;20411;-88
2022/11/04 18:25:42;;;;;;;2.33;1.80;;;;;;;;;;5012371;28;20953;-88
2022/11/04 18:28:08;;;;;;;4.35;2.50;;;;;;;;;;5028562;28;20387;-88
2022/11/04 18:30:34;;;;;;;2.25;2.08;;;;;;;;;;5031767;28;20975;-88
2022/11/04 18:33:00;;;;;;;2.50;2.30;;;;;;;;;;5031253;28;20462;-87
2022/11/04 18:35:26;;;;;;;4.10;2.60;;;;;;;;;;5031205;28;20384;-89
2022/11/04 18:37:52;;;;;;;3.00;2.80;;;;;;;;;;5015779;28;20901;-89
2022/11/04 18:40:18;;;;;;;3.10;2.80;;;;;;;;;;5031923;28;20387;-91
2022/11/04 18:42:44;;;;;;;4.35;3.25;;;;;;;;;;5012248;28;20796;-89
2022/11/04 18:45:10;;;;;;;3.80;2.92;;;;;;;;;;5032330;28;20390;-89
2022/11/04 18:47:36;;;;;;;2.87;2.53;;;;;;;;;;5013745;28;20398;-89
2022/11/04 18:50:02;;;;;;;3.38;2.60;;;;;;;;;;5033915;28;20523;-91
2022/11/04 18:52:28;;;;;;;3.03;2.50;;;;;;;;;;5032145;28;20482;-89
2022/11/04 18:54:54;;;;;;;2.60;2.40;;;;;;;;;;5033846;28;20383;-88
2022/11/04 18:57:20;;;;;;;2.50;2.30;;;;;;;;;;5033000;28;20836;-89
2022/11/04 18:59:46;;;;;;;2.80;2.50;;;;;;;;;;5031665;28;20404;-89
2022/11/04 19:02:18;;;;;;;3.25;2.90;;;;;;;;;;5029473;28;20416;-89
2022/11/04 19:04:44;;;;;;;3.60;2.72;;;;;;;;;;5031346;28;20788;-89
2022/11/04 19:07:10;;;;;;;3.65;3.35;;;;;;;;;;5031660;28;20859;-91
2022/11/04 19:09:38;;;;;;;2.60;2.40;;;;;;;;;;5025629;28;20393;-90
2022/11/04 19:14:48;;;;;;;2.10;1.90;;;;;;;;;;5017217;28;20419;-91
2022/11/04 19:17:14;;;;;;;1.92;1.50;;;;;;;;;;5018853;28;20389;-91
2022/11/04 19:19:41;;;;;;;2.22;1.80;;;;;;;;;;5019307;28;20467;-90
2022/11/04 19:22:07;;;;;;;1.67;1.58;;;;;;;;;;5023752;28;20381;-88
2022/11/04 19:24:33;;;;;;;2.30;2.10;;;;;;;;;;5020867;28;20382;-90
2022/11/04 19:26:59;;;;;;;5.25;3.60;;;;;;;;;;5026585;28;20469;-90
2022/11/04 19:29:25;;;;;;;4.40;3.90;;;;;;;;;;5016687;28;20569;-90
2022/11/04 19:31:51;;;;;;;4.95;4.55;;;;;;;;;;5018680;28;20412;-89
2022/11/04 19:34:17;;;;;;;4.75;4.35;;;;;;;;;;5018592;28;20385;-89
2022/11/04 19:36:45;;;;;;;4.22;3.83;;;;;;;;;;5012243;28;20448;-91
2022/11/04 19:39:11;;;;;;;3.65;3.30;;;;;;;;;;5024077;28;20768;-91
2022/11/04 19:44:22;;;;;;;3.57;3.27;;;;;;;;;;5014959;28;20738;-88
2022/11/04 19:46:49;;;;;;;3.90;3.50;;;;;;;;;;5021288;28;20409;-88
2022/11/04 19:49:15;;;;;;;3.70;3.40;;;;;;;;;;5014952;28;20414;-88
2022/11/04 19:51:41;;;;;;;3.97;3.40;;;;;;;;;;5011137;28;20424;-88
2022/11/04 19:54:08;;;;;;;3.20;2.90;;;;;;;;;;5019962;28;20389;-89
2022/11/04 19:56:35;;;;;;;3.05;2.75;;;;;;;;;;5033556;28;20407;-88
2022/11/04 19:59:01;;;;;;;3.50;3.20;;;;;;;;;;5033962;28;20386;-87
2022/11/04 20:01:27;;;;;;;4.25;2.95;;;;;;;;;;5044579;28;20392;-88
2022/11/04 20:03:53;;;;;;;3.70;3.40;;;;;;;;;;5040097;28;20407;-87
2022/11/04 20:06:19;;;;;;;3.80;3.50;;;;;;;;;;5032158;28;20818;-88
2022/11/04 20:08:47;;;;;;;4.32;3.30;;;;;;;;;;5026894;28;20486;-88
2022/11/04 20:11:14;;;;;;;3.42;3.13;;;;;;;;;;5020887;28;20936;-88